createdAt,value
2019-04-05T00:01:20.683Z,98694.19
2019-04-05T00:07:01.394Z,98685.69
2019-04-05T00:09:51.433Z,98682.87
2019-04-05T00:12:40.539Z,98678.51
2019-04-05T00:15:31.708Z,98672.38
2019-04-05T00:18:02.850Z,98674.53
2019-04-05T00:20:51.527Z,98674.54
2019-04-05T00:23:22.724Z,98686.80
2019-04-05T00:25:52.899Z,98681.13
2019-04-05T00:28:42.137Z,98681.85
2019-04-05T00:31:14.000Z,98680.81
2019-04-05T00:33:47.530Z,98682.66
2019-04-05T00:36:37.549Z,98675.99
2019-04-05T00:42:17.751Z,98676.34
2019-04-05T00:44:47.865Z,98676.53
2019-04-05T00:47:37.008Z,98677.75
2019-04-05T00:50:17.431Z,98668.82
2019-04-05T00:53:08.388Z,98664.92
2019-04-05T00:55:57.398Z,98670.84
2019-04-05T00:58:48.416Z,98670.40
2019-04-05T01:01:18.621Z,98678.09
2019-04-05T01:03:48.852Z,98686.94
2019-04-05T01:06:21.275Z,98693.30
2019-04-05T01:09:30.312Z,98693.16
2019-04-05T01:12:00.440Z,98695.64
2019-04-05T01:14:30.562Z,98709.02
2019-04-05T01:17:25.114Z,98721.84
2019-04-05T01:20:15.392Z,98701.36
2019-04-05T01:23:06.268Z,98701.36
2019-04-05T01:25:37.173Z,98714.84
2019-04-05T01:28:07.623Z,98699.59
2019-04-05T01:30:56.720Z,98690.27
2019-04-05T01:33:45.848Z,98687.48
2019-04-05T01:39:18.974Z,98668.63
2019-04-05T01:41:52.149Z,98683.05
2019-04-05T01:44:24.159Z,98690.58
2019-04-05T01:47:14.156Z,98684.34
2019-04-05T01:50:03.270Z,98687.34
2019-04-05T01:52:52.423Z,98683.45
2019-04-05T01:55:23.391Z,98681.06
2019-04-05T01:58:12.260Z,98681.97
2019-04-05T02:00:42.404Z,98677.42
2019-04-05T02:03:12.519Z,98668.97
2019-04-05T02:09:02.808Z,98659.05
2019-04-05T02:14:42.640Z,98662.91
2019-04-05T02:17:12.766Z,98662.91
2019-04-05T02:19:44.574Z,98673.20
2019-04-05T02:22:33.676Z,98675.13
2019-04-05T02:25:03.777Z,98684.09
2019-04-05T02:30:14.017Z,98688.24
2019-04-05T02:33:03.168Z,98681.58
2019-04-05T02:38:34.124Z,98677.58
2019-04-05T02:41:23.233Z,98677.58
2019-04-05T02:44:12.290Z,98679.05
2019-04-05T02:47:01.337Z,98666.84
2019-04-05T02:49:42.020Z,98665.84
2019-04-05T02:52:31.976Z,98669.36
2019-04-05T02:55:02.153Z,98671.20
2019-04-05T02:57:32.304Z,98670.96
2019-04-05T03:00:24.226Z,98661.50
2019-04-05T03:03:15.728Z,98675.69
2019-04-05T03:06:06.781Z,98678.14
2019-04-05T03:08:38.293Z,98681.20
2019-04-05T03:11:10.523Z,98695.45
2019-04-05T03:14:01.049Z,98689.69
2019-04-05T03:19:52.922Z,98716.10
2019-04-05T03:22:41.968Z,98714.41
2019-04-05T03:25:31.109Z,98721.30
2019-04-05T03:31:00.977Z,98717.34
2019-04-05T03:33:31.153Z,98698.33
2019-04-05T03:36:01.227Z,98692.88
2019-04-05T03:41:32.747Z,98689.90
2019-04-05T03:44:23.110Z,98689.90
2019-04-05T03:46:56.781Z,98685.34
2019-04-05T03:49:44.255Z,98702.05
2019-04-05T03:52:33.369Z,98706.41
2019-04-05T03:55:03.658Z,98717.58
2019-04-05T03:57:36.089Z,98726.83
2019-04-05T04:00:25.302Z,98716.71
2019-04-05T04:02:55.439Z,98732.39
2019-04-05T04:05:28.518Z,98736.59
2019-04-05T04:08:23.289Z,98736.75
2019-04-05T04:13:51.752Z,98748.40
2019-04-05T04:16:21.935Z,98748.43
2019-04-05T04:18:52.036Z,98744.75
2019-04-05T04:21:52.816Z,98734.52
2019-04-05T04:24:23.017Z,98734.66
2019-04-05T04:26:53.213Z,98744.14
2019-04-05T04:32:31.287Z,98740.22
2019-04-05T04:35:01.598Z,98719.48
2019-04-05T04:37:31.762Z,98715.17
2019-04-05T04:40:20.888Z,98717.77
2019-04-05T04:43:11.741Z,98721.36
2019-04-05T04:46:00.838Z,98716.00
2019-04-05T04:48:30.896Z,98716.00
2019-04-05T04:51:00.950Z,98714.97
2019-04-05T04:53:50.070Z,98712.42
2019-04-05T04:56:20.243Z,98712.80
2019-04-05T04:58:52.348Z,98717.35
2019-04-05T05:07:24.928Z,98719.74
2019-04-05T05:10:15.599Z,98716.64
2019-04-05T05:13:04.820Z,98715.50
2019-04-05T05:15:36.815Z,98718.70
2019-04-05T05:18:07.110Z,98721.91
2019-04-05T05:23:46.981Z,98727.55
2019-04-05T05:26:38.098Z,98725.16
2019-04-05T05:32:27.869Z,98726.33
2019-04-05T05:38:02.377Z,98722.27
2019-04-05T05:40:35.275Z,98725.67
2019-04-05T05:46:31.827Z,98728.96
2019-04-05T05:49:33.111Z,98729.57
2019-04-05T05:52:05.468Z,98726.62
2019-04-05T05:55:14.839Z,98727.63
2019-04-05T06:07:28.409Z,98744.09
2019-04-05T06:13:13.042Z,98748.06
2019-04-05T06:15:43.118Z,98745.33
2019-04-05T06:18:34.791Z,98749.34
2019-04-05T06:21:05.008Z,98748.49
2019-04-05T06:23:56.695Z,98759.40
2019-04-05T06:26:46.374Z,98760.03
2019-04-05T06:29:37.333Z,98765.56
2019-04-05T06:32:26.398Z,98768.56
2019-04-05T06:35:15.514Z,98768.25
2019-04-05T06:38:04.640Z,98772.83
2019-04-05T06:40:55.681Z,98768.81
2019-04-05T06:43:41.313Z,98766.30
2019-04-05T06:46:28.488Z,98761.95
2019-04-05T06:48:59.500Z,98761.46
2019-04-05T06:54:30.940Z,98763.16
2019-04-05T06:57:01.155Z,98765.58
2019-04-05T07:00:09.270Z,98762.36
2019-04-05T07:03:13.734Z,98771.73
2019-04-05T07:06:02.940Z,98771.41
2019-04-05T07:08:53.890Z,98774.33
2019-04-05T07:12:02.218Z,98775.38
2019-04-05T07:24:07.003Z,98770.81
2019-04-05T07:26:58.566Z,98774.73
2019-04-05T07:30:10.918Z,98771.40
2019-04-05T07:33:17.314Z,98768.58
2019-04-05T07:35:57.587Z,98772.30
2019-04-05T07:38:58.578Z,98774.11
2019-04-05T07:41:47.675Z,98767.66
2019-04-05T07:44:22.148Z,98755.12
2019-04-05T07:47:12.168Z,98774.87
2019-04-05T07:53:13.395Z,98777.92
2019-04-05T07:59:00.233Z,98768.00
2019-04-05T08:01:50.290Z,98765.33
2019-04-05T08:05:00.988Z,98768.13
2019-04-05T08:08:11.805Z,98768.17
2019-04-05T08:11:01.844Z,98774.66
2019-04-05T08:16:58.279Z,98777.46
2019-04-05T08:19:29.315Z,98776.89
2019-04-05T08:24:49.264Z,98771.88
2019-04-05T08:33:23.153Z,98766.04
2019-04-05T08:36:15.043Z,98767.53
2019-04-05T08:41:45.138Z,98765.70
2019-04-05T08:44:55.162Z,98771.02
2019-04-05T08:47:26.951Z,98773.29
2019-04-05T08:50:16.125Z,98773.29
2019-04-05T08:52:59.508Z,98778.19
2019-04-05T09:01:21.953Z,98775.27
2019-04-05T09:07:00.813Z,98783.51
2019-04-05T09:09:31.989Z,98786.30
2019-04-05T09:12:24.257Z,98785.16
2019-04-05T09:15:35.491Z,98785.16
2019-04-05T09:21:04.638Z,98781.81
2019-04-05T09:23:36.577Z,98777.36
2019-04-05T09:26:06.970Z,98782.20
2019-04-05T09:28:56.237Z,98781.83
2019-04-05T09:31:45.419Z,98782.95
2019-04-05T09:40:02.561Z,98782.28
2019-04-05T09:42:41.207Z,98784.89
2019-04-05T09:46:03.884Z,98787.84
2019-04-05T09:51:41.204Z,98785.67
2019-04-05T09:57:22.781Z,98779.99
2019-04-05T10:03:17.716Z,98782.84
2019-04-05T10:06:08.624Z,98784.77
2019-04-05T10:12:21.974Z,98772.70
2019-04-05T10:15:32.316Z,98786.35
2019-04-05T10:18:02.417Z,98776.77
2019-04-05T10:24:00.145Z,98783.27
2019-04-05T10:29:44.149Z,98787.69
2019-04-05T10:35:18.021Z,98784.30
2019-04-05T10:37:53.251Z,98782.94
2019-04-05T10:40:25.626Z,98786.48
2019-04-05T10:45:56.987Z,98784.30
2019-04-05T10:51:56.676Z,98759.16
2019-04-05T10:55:00.784Z,98768.05
2019-04-05T10:58:16.000Z,98756.49
2019-04-05T11:01:07.109Z,98752.84
2019-04-05T11:12:50.879Z,98767.92
2019-04-05T11:16:02.007Z,98761.56
2019-04-05T11:19:14.811Z,98760.67
2019-04-05T11:21:55.143Z,98753.95
2019-04-05T11:24:47.263Z,98756.70
2019-04-05T11:27:17.348Z,98755.75
2019-04-05T11:33:12.251Z,98749.49
2019-04-05T11:35:32.771Z,98755.91
2019-04-05T11:38:24.205Z,98735.08
2019-04-05T11:41:17.681Z,98738.14
2019-04-05T11:44:31.615Z,98731.05
2019-04-05T11:47:34.503Z,98734.11
2019-04-05T11:54:02.598Z,98740.39
2019-04-05T11:59:53.755Z,98727.58
2019-04-05T12:02:39.571Z,98730.47
2019-04-05T12:05:29.508Z,98737.57
2019-04-05T12:08:01.844Z,98735.23
2019-04-05T12:19:46.729Z,98727.98
2019-04-05T12:22:25.711Z,98725.97
2019-04-05T12:28:06.361Z,98709.37
2019-04-05T12:30:47.556Z,98715.98
2019-04-05T12:33:19.558Z,98711.98
2019-04-05T12:36:00.034Z,98713.02
2019-04-05T12:38:50.415Z,98707.52
2019-04-05T12:41:22.774Z,98711.12
2019-04-05T12:44:15.247Z,98708.25
2019-04-05T12:50:14.087Z,98709.29
2019-04-05T12:53:03.654Z,98711.74
2019-04-05T12:55:56.284Z,98708.84
2019-04-05T13:04:46.178Z,98708.47
2019-04-05T13:13:56.352Z,98699.95
2019-04-05T13:19:51.166Z,98703.43
2019-04-05T13:28:34.629Z,98704.17
2019-04-05T13:34:37.534Z,98707.20
2019-04-05T13:37:47.029Z,98707.40
2019-04-05T13:41:01.547Z,98702.95
2019-04-05T13:46:44.266Z,98689.37
2019-04-05T13:50:03.419Z,98691.27
2019-04-05T14:01:26.772Z,98719.70
2019-04-05T14:04:00.058Z,98672.41
2019-04-05T14:09:31.699Z,98666.89
2019-04-05T14:12:04.350Z,98674.89
2019-04-05T14:15:01.112Z,98664.03
2019-04-05T14:23:53.318Z,98668.89
2019-04-05T14:29:47.825Z,98671.58
2019-04-05T14:32:58.041Z,98663.84
2019-04-05T14:35:58.309Z,98663.84
2019-04-05T14:38:51.415Z,98666.86
2019-04-05T14:41:40.531Z,98664.71
2019-04-05T14:44:18.086Z,98666.39
2019-04-05T14:47:07.284Z,98655.41
2019-04-05T14:56:15.317Z,98654.46
2019-04-05T14:59:06.376Z,98651.30
2019-04-05T15:04:49.270Z,98653.72
2019-04-05T15:07:20.940Z,98646.63
2019-04-05T15:13:09.389Z,98654.52
2019-04-05T15:18:54.151Z,98661.28
2019-04-05T15:21:45.077Z,98652.51
2019-04-05T15:27:26.226Z,98661.70
2019-04-05T15:30:16.112Z,98659.12
2019-04-05T15:39:02.069Z,98658.99
2019-04-05T15:41:43.923Z,98665.98
2019-04-05T15:44:49.876Z,98655.42
2019-04-05T15:53:24.852Z,98653.00
2019-04-05T15:59:28.470Z,98644.56
2019-04-05T16:02:17.600Z,98639.03
2019-04-05T16:07:51.517Z,98652.25
2019-04-05T16:10:21.701Z,98647.73
2019-04-05T16:13:13.040Z,98652.70
2019-04-05T16:15:43.240Z,98650.98
2019-04-05T16:21:21.394Z,98655.98
2019-04-05T16:27:01.119Z,98662.05
2019-04-05T16:29:52.201Z,98658.91
2019-04-05T16:32:41.484Z,98663.14
2019-04-05T16:35:14.448Z,98666.60
2019-04-05T16:41:20.786Z,98670.58
2019-04-05T16:44:12.209Z,98667.08
2019-04-05T16:50:03.433Z,98671.93
2019-04-05T16:56:20.734Z,98672.86
2019-04-05T16:58:53.156Z,98673.68
2019-04-05T17:02:02.839Z,98670.45
2019-04-05T17:04:35.233Z,98679.25
2019-04-05T17:07:44.576Z,98676.44
2019-04-05T17:10:14.772Z,98673.75
2019-04-05T17:13:03.892Z,98667.86
2019-04-05T17:18:38.131Z,98675.36
2019-04-05T17:24:19.945Z,98673.66
2019-04-05T17:27:01.944Z,98673.66
2019-04-05T17:29:51.579Z,98677.24
2019-04-05T17:33:12.457Z,98676.39
2019-04-05T17:35:51.836Z,98676.84
2019-04-05T17:38:38.232Z,98682.45
2019-04-05T17:41:33.117Z,98666.51
2019-04-05T17:44:23.629Z,98685.39
2019-04-05T17:53:41.091Z,98681.40
2019-04-05T17:56:30.180Z,98686.02
2019-04-05T17:59:00.686Z,98684.77
2019-04-05T18:04:54.358Z,98668.84
2019-04-05T18:07:44.344Z,98691.74
2019-04-05T18:16:45.283Z,98697.27
2019-04-05T18:19:19.165Z,98701.45
2019-04-05T18:22:10.668Z,98703.33
2019-04-05T18:24:43.125Z,98698.92
2019-04-05T18:27:32.502Z,98687.07
2019-04-05T18:30:23.989Z,98698.18
2019-04-05T18:33:13.849Z,98692.11
2019-04-05T18:35:47.362Z,98701.05
2019-04-05T18:38:38.426Z,98706.37
2019-04-05T18:41:40.748Z,98707.97
2019-04-05T18:44:22.240Z,98704.08
2019-04-05T18:47:11.579Z,98711.61
2019-04-05T18:50:12.778Z,98710.58
2019-04-05T18:55:41.080Z,98724.25
2019-04-05T19:01:20.470Z,98722.04
2019-04-05T19:03:50.899Z,98728.47
2019-04-05T19:06:35.563Z,98724.95
2019-04-05T19:09:15.073Z,98725.33
2019-04-05T19:12:04.263Z,98727.98
2019-04-05T19:18:02.239Z,98733.89
2019-04-05T19:23:50.849Z,98725.27
2019-04-05T19:26:18.257Z,98727.16
2019-04-05T19:29:07.097Z,98731.16
2019-04-05T19:49:31.401Z,98736.06
2019-04-05T19:52:40.945Z,98722.48
2019-04-05T19:55:13.712Z,98725.52
2019-04-05T19:57:46.283Z,98719.30
2019-04-05T20:03:37.628Z,98712.78
2019-04-05T20:12:58.258Z,98713.56
2019-04-05T20:18:35.482Z,98699.42
2019-04-05T20:21:07.905Z,98703.16
2019-04-05T20:24:14.059Z,98709.08
2019-04-05T20:29:49.899Z,98704.87
2019-04-05T20:32:24.436Z,98710.73
2019-04-05T20:38:49.230Z,98713.87
2019-04-05T20:41:19.946Z,98717.61
2019-04-05T20:44:34.158Z,98723.14
2019-04-05T20:57:30.625Z,98718.90
2019-04-05T21:06:02.361Z,98726.17
2019-04-05T21:08:32.847Z,98719.98
2019-04-05T21:11:24.040Z,98725.73
2019-04-05T21:14:13.177Z,98722.16
2019-04-05T21:16:44.441Z,98728.78
2019-04-05T21:19:35.246Z,98732.80
2019-04-05T21:22:05.729Z,98731.25
2019-04-05T21:27:39.869Z,98740.80
2019-04-05T21:30:29.412Z,98737.80
2019-04-05T21:33:00.411Z,98737.60
2019-04-05T21:36:10.419Z,98740.27
2019-04-05T21:39:31.945Z,98733.70
2019-04-05T21:42:12.298Z,98740.73
2019-04-05T21:45:05.285Z,98741.20
2019-04-05T21:47:55.214Z,98743.41
2019-04-05T21:53:37.220Z,98738.22
2019-04-05T21:56:07.280Z,98744.04
2019-04-05T21:59:16.370Z,98744.89
2019-04-05T22:05:17.567Z,98745.15
2019-04-05T22:07:48.642Z,98745.15
2019-04-05T22:10:38.253Z,98748.11
2019-04-05T22:13:48.243Z,98741.86
2019-04-05T22:16:51.355Z,98744.56
2019-04-05T22:19:12.049Z,98743.14
2019-04-05T22:21:46.602Z,98742.06
2019-04-05T22:24:17.578Z,98742.06
2019-04-05T22:27:07.621Z,98744.16
2019-04-05T22:29:39.476Z,98744.16
2019-04-05T22:32:24.467Z,98743.77
2019-04-05T22:35:04.492Z,98734.98
2019-04-05T22:37:47.279Z,98736.88
2019-04-05T22:43:18.910Z,98735.92
2019-04-05T22:45:49.175Z,98731.47
2019-04-05T22:48:38.407Z,98735.49
2019-04-05T22:51:09.944Z,98732.81
2019-04-05T22:53:42.573Z,98735.25
2019-04-05T22:59:48.312Z,98731.55
2019-04-05T23:02:38.406Z,98725.83
2019-04-05T23:05:09.485Z,98726.38
2019-04-05T23:10:31.639Z,98712.78
2019-04-05T23:13:05.574Z,98712.87
2019-04-05T23:18:47.323Z,98711.48
2019-04-05T23:21:18.966Z,98725.88
2019-04-05T23:23:50.043Z,98714.48
2019-04-05T23:29:41.686Z,98721.06
2019-04-05T23:32:31.889Z,98721.54
2019-04-05T23:35:15.020Z,98700.93
2019-04-05T23:37:54.915Z,98716.77
2019-04-05T23:40:26.019Z,98722.41
2019-04-05T23:43:16.042Z,98716.50
2019-04-05T23:45:47.568Z,98718.93
2019-04-05T23:51:39.007Z,98719.01
2019-04-05T23:54:29.023Z,98719.01
2019-04-05T23:57:00.081Z,98719.92
2019-04-05T23:59:33.573Z,98722.63
